Time;durP1;ratioP1;P1;durP2;ratioP2;P2;SDS_P1;SDS_P2;PMS_P1;PMS_P2;Temp;Humidity;BMP_temperature;BMP_pressure;BME280_temperature;BME280_humidity;BME280_pressure;Samples;Min_cycle;Max_cycle;Signal;HPM_P1;HPM_P2
2021/07/28 09:46:38;;;;;;;5.28;1.48;;;;;;;23.39;57.55;99676.44;5149687;23;20059;-96
2021/07/28 09:49:06;;;;;;;4.75;1.60;;;;;;;23.15;58.28;99660.75;4980331;28;20032;-96
2021/07/28 09:51:35;;;;;;;2.78;1.30;;;;;;;23.26;57.37;99671.88;5128529;23;20092;-96
2021/07/28 09:54:06;;;;;;;4.22;1.70;;;;;;;24.39;56.40;99661.03;4960546;29;20035;-96
2021/07/28 09:56:49;;;;;;;3.30;1.85;;;;;;;25.52;55.58;99670.28;4958382;29;20023;-96
2021/07/28 09:59:15;;;;;;;5.05;1.42;;;;;;;25.48;52.43;99652.94;4992194;23;20055;-96
2021/07/28 10:01:43;;;;;;;7.80;1.27;;;;;;;24.84;54.36;99655.66;4959786;29;20019;-96
2021/07/28 10:04:11;;;;;;;8.70;1.42;;;;;;;24.23;54.76;99650.75;4960519;29;20035;-96
2021/07/28 10:06:44;;;;;;;6.90;1.23;;;;;;;24.07;55.67;99663.63;4962046;28;20112;-96
2021/07/28 10:29:52;;;;;;;2.08;0.40;;;;;;;25.41;49.94;99661.06;5297596;23;20031;-96
2021/07/28 10:37:35;;;;;;;2.70;0.60;;;;;;;25.89;47.75;99656.91;5896943;23;20019;-96
2021/07/28 10:40:01;;;;;;;2.63;0.57;;;;;;;26.36;45.19;99662.59;4978313;28;20007;-96
2021/07/28 10:42:29;;;;;;;1.42;0.68;;;;;;;24.77;47.99;99683.59;4975995;28;20119;-96
2021/07/28 10:45:01;;;;;;;2.20;0.50;;;;;;;25.68;48.19;99679.66;5379246;23;20015;-95
2021/07/28 10:47:40;;;;;;;1.95;0.60;;;;;;;24.82;50.23;99670.31;4974097;28;20047;-95
2021/07/28 10:50:29;;;;;;;4.55;0.70;;;;;;;25.33;49.14;99656.78;4968946;28;20501;-95
2021/07/28 10:52:58;;;;;;;2.88;0.60;;;;;;;24.88;49.75;99653.34;4971234;28;20030;-96
2021/07/28 10:55:24;;;;;;;3.63;1.00;;;;;;;25.40;50.60;99664.78;4969590;28;20096;-96
2021/07/28 10:57:56;;;;;;;4.13;0.70;;;;;;;25.37;48.66;99677.84;4974893;28;20036;-96
2021/07/28 11:00:39;;;;;;;2.13;0.85;;;;;;;24.40;51.21;99677.94;4973682;28;20007;-96
2021/07/28 11:03:08;;;;;;;6.65;0.90;;;;;;;24.99;49.80;99678.72;4980628;28;20019;-95
2021/07/28 11:05:45;;;;;;;2.65;0.60;;;;;;;24.63;50.23;99656.00;4980612;28;20062;-96
2021/07/28 11:08:13;;;;;;;2.05;0.80;;;;;;;25.44;51.83;99651.75;4975075;28;20055;-96
2021/07/28 11:11:01;;;;;;;3.55;0.73;;;;;;;25.55;48.53;99667.13;4973630;29;20023;-96
2021/07/28 11:13:28;;;;;;;4.05;0.70;;;;;;;26.45;47.82;99646.97;4977582;28;20023;-96
2021/07/28 11:16:04;;;;;;;2.20;0.60;;;;;;;27.31;46.99;99655.69;4973696;28;20023;-96
2021/07/28 11:18:40;;;;;;;1.92;0.63;;;;;;;28.12;45.28;99655.13;4972714;28;20034;-96
2021/07/28 11:21:30;;;;;;;5.93;0.60;;;;;;;27.60;43.40;99647.75;4974299;28;20058;-96
2021/07/28 11:24:01;;;;;;;3.47;0.80;;;;;;;28.85;42.81;99646.31;4976155;28;20027;-96
2021/07/28 11:26:45;;;;;;;1.60;0.75;;;;;;;28.79;39.92;99647.28;4976118;28;20031;-96
2021/07/28 11:29:20;;;;;;;2.67;0.90;;;;;;;27.79;44.32;99653.84;4976963;28;20027;-96
2021/07/28 12:51:55;;;;;;;5.32;0.60;;;;;;;25.87;52.53;99664.34;1241611;23;22337;-96
2021/07/28 12:54:21;;;;;;;7.43;0.90;;;;;;;26.73;51.87;99673.34;5125680;23;20413;-96
2021/07/28 12:56:46;;;;;;;4.50;1.25;;;;;;;26.68;49.86;99659.75;4963271;28;20023;-96
2021/07/28 12:59:12;;;;;;;3.80;0.80;;;;;;;27.24;46.43;99650.44;4965724;28;20035;-96
2021/07/28 13:01:37;;;;;;;3.97;0.80;;;;;;;28.27;48.00;99650.03;5008080;23;20455;-95
2021/07/28 13:04:04;;;;;;;9.85;1.20;;;;;;;26.70;48.93;99649.56;4965042;28;20035;-96
2021/07/28 13:06:30;;;;;;;8.93;1.55;;;;;;;27.90;47.28;99647.63;4970969;28;20075;-96
2021/07/28 13:08:56;;;;;;;5.63;1.10;;;;;;;27.48;47.07;99636.97;4972936;28;20051;-96
2021/07/28 13:11:21;;;;;;;5.68;1.00;;;;;;;27.89;46.70;99646.00;4967739;28;20031;-96
2021/07/28 13:13:46;;;;;;;3.63;0.75;;;;;;;26.45;48.60;99626.25;4972649;28;20035;-95
2021/07/28 13:16:12;;;;;;;4.30;1.05;;;;;;;26.03;50.08;99644.97;4963023;28;20031;-95
2021/07/28 13:18:37;;;;;;;4.07;0.82;;;;;;;24.99;50.41;99646.47;4965120;28;20433;-96
2021/07/28 13:21:03;;;;;;;5.47;1.02;;;;;;;24.32;52.54;99666.41;4974647;28;20102;-95
2021/07/28 13:23:30;;;;;;;5.28;1.60;;;;;;;23.10;55.20;99670.44;5002900;23;20044;-96
2021/07/28 13:25:56;;;;;;;7.50;1.00;;;;;;;23.15;55.66;99658.09;4968014;29;20019;-96
2021/07/28 13:28:22;;;;;;;6.43;0.98;;;;;;;22.84;57.63;99661.28;4971564;28;20007;-96
2021/07/28 13:30:48;;;;;;;2.65;0.70;;;;;;;23.91;57.12;99669.41;4974617;28;20031;-96
2021/07/28 13:33:13;;;;;;;5.40;0.75;;;;;;;23.71;55.62;99659.50;4969739;28;20058;-96
2021/07/28 13:35:39;;;;;;;4.25;0.60;;;;;;;23.93;56.95;99649.41;4971787;28;20038;-96
2021/07/28 13:38:04;;;;;;;6.07;0.70;;;;;;;23.74;56.86;99653.75;4969189;28;20023;-96
2021/07/28 13:40:30;;;;;;;2.75;0.60;;;;;;;23.98;55.39;99670.22;4968520;28;20027;-96
2021/07/28 13:42:56;;;;;;;6.07;1.02;;;;;;;23.71;56.92;99654.16;4970505;28;20093;-96
2021/07/28 13:45:22;;;;;;;4.78;0.88;;;;;;;24.27;53.85;99651.97;4969791;28;20154;-96
2021/07/28 13:47:47;;;;;;;6.97;0.70;;;;;;;24.03;54.75;99640.94;4966930;28;20032;-96
2021/07/28 13:52:49;;;;;;;5.85;0.77;;;;;;;23.28;56.02;99641.22;5423092;23;20047;-96
2021/07/28 13:55:15;;;;;;;5.97;1.15;;;;;;;24.42;54.03;99660.59;4966448;28;20031;-96
2021/07/28 13:57:41;;;;;;;7.30;1.92;;;;;;;24.19;54.60;99657.56;4969872;28;20023;-95
2021/07/28 14:07:53;;;;;;;5.38;0.80;;;;;;;23.48;54.20;99653.75;1009453;23;20395;-89
2021/07/28 14:33:33;;;;;;;3.92;1.02;;;;;;;24.19;50.09;99633.44;5712152;23;20058;-96
2021/07/28 14:48:58;;;;;;;3.95;0.60;;;;;;;23.67;53.91;99623.44;5819469;23;20054;-96
2021/07/28 14:51:24;;;;;;;5.00;0.60;;;;;;;23.79;55.36;99628.19;5000165;28;20019;-96
2021/07/28 14:53:50;;;;;;;5.22;0.70;;;;;;;23.64;54.52;99613.16;4995488;28;20074;-96
2021/07/28 14:56:17;;;;;;;6.00;0.85;;;;;;;23.02;55.49;99609.88;4992829;28;20033;-96
2021/07/28 15:03:54;;;;;;;4.22;0.80;;;;;;;23.26;52.84;99619.19;5768139;23;20038;-96
2021/07/28 15:16:34;;;;;;;4.20;0.90;;;;;;;21.79;52.40;99656.06;5377648;23;20047;-95
2021/07/28 15:19:11;;;;;;;6.50;0.93;;;;;;;21.99;55.17;99645.50;4977282;28;20023;-96
2021/07/28 15:31:58;;;;;;;4.15;0.75;;;;;;;21.89;55.20;99660.25;5854025;23;20026;-96
2021/07/28 16:13:38;;;;;;;4.97;1.15;;;;;;;21.96;53.14;99651.25;4953105;29;20042;-96
2021/07/28 16:16:04;;;;;;;4.18;0.73;;;;;;;21.87;53.24;99657.78;4956784;29;20019;-95
2021/07/28 16:18:42;;;;;;;4.57;0.70;;;;;;;22.21;51.98;99672.16;4955625;29;20493;-96
2021/07/28 16:21:09;;;;;;;3.85;0.93;;;;;;;21.45;54.89;99680.09;4957168;28;20067;-96
2021/07/28 16:31:21;;;;;;;5.68;0.90;;;;;;;21.33;60.41;99659.22;5306490;23;20087;-96
2021/07/28 16:36:23;;;;;;;6.32;1.30;;;;;;;20.81;60.47;99671.00;5856290;23;20414;-96
2021/07/28 16:56:56;;;;;;;9.05;1.27;;;;;;;20.85;61.14;99648.28;5043843;23;20073;-96
2021/07/28 17:07:12;;;;;;;13.73;1.73;;;;;;;21.42;59.26;99665.22;5077283;23;20070;-95
2021/07/28 17:22:29;;;;;;;9.68;1.17;;;;;;;21.17;57.73;99659.47;5545995;23;20234;-96
2021/07/28 17:24:55;;;;;;;4.53;0.90;;;;;;;21.21;56.07;99658.09;4992960;28;20019;-96
2021/07/28 17:27:20;;;;;;;5.32;0.80;;;;;;;21.51;56.27;99652.59;4990034;28;20041;-96
2021/07/28 17:29:46;;;;;;;4.55;0.60;;;;;;;21.45;54.95;99669.41;4994668;28;20050;-96
2021/07/28 17:32:11;;;;;;;7.05;1.00;;;;;;;20.97;55.99;99656.59;4995568;28;20034;-96
2021/07/28 17:34:37;;;;;;;4.53;0.88;;;;;;;21.12;54.38;99656.56;4994984;28;20030;-96
2021/07/28 17:39:37;;;;;;;6.13;0.90;;;;;;;20.74;54.96;99662.13;5463086;23;20051;-95
2021/07/28 17:49:51;;;;;;;4.35;1.08;;;;;;;20.33;56.26;99674.13;5865544;23;20048;-96
2021/07/28 17:52:17;;;;;;;7.32;1.08;;;;;;;20.86;55.67;99676.63;4997777;23;20039;-96
2021/07/28 17:54:49;;;;;;;3.30;1.00;;;;;;;20.98;56.12;99682.28;5013522;23;20090;-96
2021/07/28 17:57:18;;;;;;;7.30;1.40;;;;;;;21.06;56.07;99681.34;5571876;23;20039;-94
2021/07/28 17:59:51;;;;;;;4.15;0.65;;;;;;;20.32;56.11;99676.97;5919686;23;20305;-96
2021/07/28 18:04:52;;;;;;;4.97;0.90;;;;;;;21.13;54.00;99703.56;5320687;23;20055;-96
2021/07/28 18:07:24;;;;;;;5.75;0.80;;;;;;;21.06;54.18;99706.19;4977236;28;20095;-96
2021/07/28 18:09:51;;;;;;;7.20;1.20;;;;;;;20.00;55.88;99671.84;5042697;23;20027;-96
2021/07/28 18:14:51;;;;;;;5.45;0.55;;;;;;;20.29;55.62;99709.34;5090430;23;20141;-95
2021/07/28 18:17:17;;;;;;;2.13;0.50;;;;;;;20.09;55.53;99712.56;4975863;28;20122;-96
2021/07/28 18:19:43;;;;;;;6.07;0.88;;;;;;;19.77;55.38;99714.53;4977815;28;20035;-96
2021/07/28 18:22:09;;;;;;;2.50;0.57;;;;;;;20.08;52.92;99732.19;4972230;28;20027;-96
2021/07/28 18:24:35;;;;;;;10.68;1.10;;;;;;;19.62;54.74;99733.09;4972853;28;20027;-95
2021/07/28 18:27:01;;;;;;;3.40;0.45;;;;;;;19.35;56.37;99745.16;5111251;23;20077;-96
2021/07/28 18:29:26;;;;;;;3.83;1.52;;;;;;;19.00;58.52;99776.63;5053037;23;20042;-96
2021/07/28 18:31:52;;;;;;;4.10;0.63;;;;;;;18.32;63.18;99759.38;4971360;29;20389;-96
2021/07/28 18:34:17;;;;;;;5.72;0.90;;;;;;;18.13;64.18;99765.94;4972461;28;20131;-95
2021/07/28 18:36:43;;;;;;;3.35;0.60;;;;;;;18.40;64.37;99727.50;4976022;28;20030;-96
2021/07/28 18:39:08;;;;;;;5.47;0.70;;;;;;;17.97;63.39;99710.16;4976385;29;20066;-96
2021/07/28 18:41:35;;;;;;;3.67;0.82;;;;;;;18.20;65.17;99732.34;4960846;28;20035;-96
2021/07/28 18:44:01;;;;;;;2.70;0.68;;;;;;;18.47;64.06;99719.66;5031833;23;20062;-96
2021/07/28 18:46:27;;;;;;;1.90;0.65;;;;;;;18.77;62.48;99727.81;4977843;28;20028;-96
2021/07/28 18:48:52;;;;;;;2.63;0.80;;;;;;;19.14;61.58;99718.34;4981101;28;20030;-96
2021/07/28 18:51:18;;;;;;;3.50;0.70;;;;;;;18.52;64.56;99745.72;4979769;28;20027;-96
2021/07/28 18:53:47;;;;;;;7.80;1.15;;;;;;;18.55;64.31;99727.59;4979852;28;20017;-96
2021/07/28 18:56:13;;;;;;;3.92;0.77;;;;;;;19.09;62.72;99752.63;4978309;28;20058;-96
2021/07/28 18:58:39;;;;;;;4.95;0.90;;;;;;;19.50;60.58;99731.88;5458258;23;20055;-95
2021/07/28 19:01:04;;;;;;;4.63;0.70;;;;;;;19.85;59.57;99750.94;4974091;28;20032;-96
2021/07/28 19:03:29;;;;;;;6.90;1.05;;;;;;;19.65;59.18;99725.75;4975949;28;20106;-96
2021/07/28 19:05:55;;;;;;;5.68;0.88;;;;;;;19.68;58.96;99744.06;4961165;29;20389;-96
2021/07/28 19:08:20;;;;;;;1.70;0.40;;;;;;;19.66;59.44;99746.06;4968518;29;20019;-96
2021/07/28 19:10:49;;;;;;;4.20;0.80;;;;;;;19.62;59.87;99749.06;4965245;28;20066;-95
2021/07/28 19:13:15;;;;;;;4.53;0.90;;;;;;;19.61;58.53;99739.44;5103414;23;20062;-96
2021/07/28 19:18:22;;;;;;;6.80;1.52;;;;;;;18.91;60.17;99761.69;5827338;23;20301;-96
2021/07/28 19:20:48;;;;;;;7.10;1.08;;;;;;;19.28;59.16;99754.84;5458248;23;20094;-96
2021/07/28 19:23:13;;;;;;;5.22;0.60;;;;;;;19.49;57.96;99756.00;5000482;28;20031;-96
2021/07/28 20:27:38;;;;;;;4.90;1.05;;;;;;;19.55;59.10;99792.56;5801945;23;20051;-96
2021/07/28 20:30:06;;;;;;;7.03;1.00;;;;;;;18.73;62.24;99782.38;4993018;28;20037;-96
2021/07/28 20:32:34;;;;;;;6.63;0.82;;;;;;;19.08;58.96;99774.94;4996175;28;20038;-96
2021/07/28 21:31:57;;;;;;;5.57;1.50;;;;;;;18.47;61.84;99818.00;4935696;29;20032;-96
2021/07/28 21:39:28;;;;;;;6.50;1.65;;;;;;;18.55;61.36;99828.63;5398441;23;20034;-96
2021/07/28 21:41:59;;;;;;;7.32;1.38;;;;;;;18.47;61.10;99833.97;4991071;28;20037;-96
2021/07/28 21:44:32;;;;;;;6.32;1.75;;;;;;;18.19;62.59;99830.84;4975868;28;20082;-96
2021/07/28 21:46:58;;;;;;;6.45;1.77;;;;;;;18.26;62.19;99820.38;4968153;28;20027;-96
2021/07/28 22:02:47;;;;;;;6.10;2.00;;;;;;;17.88;63.82;99812.09;5955245;23;20010;-96
2021/07/28 23:40:59;;;;;;;10.27;2.17;;;;;;;17.04;67.70;99841.25;5809943;23;20247;-96
